sensor_id;sensor_type;location;lat;lon;timestamp;P1;durP1;ratioP1;P2;durP2;ratioP2
55346;SDS011;41218;55.700;38.270;2023-05-10T00:03:28;12.27;;;6.30;;
55346;SDS011;41218;55.700;38.270;2023-05-10T00:08:29;12.33;;;6.93;;
55346;SDS011;41218;55.700;38.270;2023-05-10T00:13:29;13.87;;;6.83;;
55346;SDS011;41218;55.700;38.270;2023-05-10T00:18:31;12.13;;;6.43;;
55346;SDS011;41218;55.700;38.270;2023-05-10T00:23:32;14.77;;;6.67;;
55346;SDS011;41218;55.700;38.270;2023-05-10T00:28:33;13.93;;;6.83;;
55346;SDS011;41218;55.700;38.270;2023-05-10T00:33:33;13.73;;;7.23;;
55346;SDS011;41218;55.700;38.270;2023-05-10T00:38:34;15.90;;;7.40;;
55346;SDS011;41218;55.700;38.270;2023-05-10T00:43:34;19.37;;;7.10;;
55346;SDS011;41218;55.700;38.270;2023-05-10T00:48:35;15.40;;;7.22;;
55346;SDS011;41218;55.700;38.270;2023-05-10T00:53:36;16.00;;;7.20;;
55346;SDS011;41218;55.700;38.270;2023-05-10T01:03:38;15.27;;;7.53;;
55346;SDS011;41218;55.700;38.270;2023-05-10T01:08:40;13.35;;;7.32;;
55346;SDS011;41218;55.700;38.270;2023-05-10T01:13:41;14.93;;;7.20;;
55346;SDS011;41218;55.700;38.270;2023-05-10T01:18:43;13.38;;;7.05;;
55346;SDS011;41218;55.700;38.270;2023-05-10T01:23:50;15.35;;;8.15;;
55346;SDS011;41218;55.700;38.270;2023-05-10T01:29:31;14.13;;;7.35;;
55346;SDS011;41218;55.700;38.270;2023-05-10T01:34:54;16.02;;;7.32;;
55346;SDS011;41218;55.700;38.270;2023-05-10T01:40:39;16.23;;;7.13;;
55346;SDS011;41218;55.700;38.270;2023-05-10T01:45:50;14.23;;;6.45;;
55346;SDS011;41218;55.700;38.270;2023-05-10T01:51:05;14.15;;;7.32;;
55346;SDS011;41218;55.700;38.270;2023-05-10T01:56:06;15.57;;;7.00;;
55346;SDS011;41218;55.700;38.270;2023-05-10T02:01:08;15.93;;;7.00;;
55346;SDS011;41218;55.700;38.270;2023-05-10T02:06:10;15.90;;;7.28;;
55346;SDS011;41218;55.700;38.270;2023-05-10T02:11:14;14.68;;;7.10;;
55346;SDS011;41218;55.700;38.270;2023-05-10T02:16:17;15.27;;;6.93;;
55346;SDS011;41218;55.700;38.270;2023-05-10T02:21:23;11.82;;;6.95;;
55346;SDS011;41218;55.700;38.270;2023-05-10T02:26:25;13.15;;;6.78;;
55346;SDS011;41218;55.700;38.270;2023-05-10T02:31:26;14.35;;;6.97;;
55346;SDS011;41218;55.700;38.270;2023-05-10T02:36:28;14.05;;;6.80;;
55346;SDS011;41218;55.700;38.270;2023-05-10T02:41:30;15.50;;;7.22;;
55346;SDS011;41218;55.700;38.270;2023-05-10T02:46:33;14.35;;;7.18;;
55346;SDS011;41218;55.700;38.270;2023-05-10T02:51:35;14.75;;;7.38;;
55346;SDS011;41218;55.700;38.270;2023-05-10T02:56:42;16.92;;;7.28;;
55346;SDS011;41218;55.700;38.270;2023-05-10T03:01:47;14.95;;;6.80;;
55346;SDS011;41218;55.700;38.270;2023-05-10T03:06:48;12.47;;;6.83;;
55346;SDS011;41218;55.700;38.270;2023-05-10T03:11:56;19.20;;;7.87;;
55346;SDS011;41218;55.700;38.270;2023-05-10T03:17:10;13.00;;;7.38;;
55346;SDS011;41218;55.700;38.270;2023-05-10T03:22:23;13.80;;;7.22;;
55346;SDS011;41218;55.700;38.270;2023-05-10T03:27:39;14.75;;;7.72;;
55346;SDS011;41218;55.700;38.270;2023-05-10T03:32:43;16.08;;;7.80;;
55346;SDS011;41218;55.700;38.270;2023-05-10T03:37:43;20.30;;;7.57;;
55346;SDS011;41218;55.700;38.270;2023-05-10T03:42:44;13.13;;;7.00;;
55346;SDS011;41218;55.700;38.270;2023-05-10T03:47:44;16.30;;;8.70;;
55346;SDS011;41218;55.700;38.270;2023-05-10T03:52:45;16.60;;;7.67;;
55346;SDS011;41218;55.700;38.270;2023-05-10T03:57:46;14.20;;;7.50;;
55346;SDS011;41218;55.700;38.270;2023-05-10T04:02:46;16.13;;;7.37;;
55346;SDS011;41218;55.700;38.270;2023-05-10T04:07:47;16.97;;;7.53;;
55346;SDS011;41218;55.700;38.270;2023-05-10T04:12:49;16.30;;;7.57;;
55346;SDS011;41218;55.700;38.270;2023-05-10T04:17:50;17.47;;;7.60;;
55346;SDS011;41218;55.700;38.270;2023-05-10T04:22:51;18.75;;;8.75;;
55346;SDS011;41218;55.700;38.270;2023-05-10T04:27:52;20.83;;;9.23;;
55346;SDS011;41218;55.700;38.270;2023-05-10T04:32:52;28.83;;;10.97;;
55346;SDS011;41218;55.700;38.270;2023-05-10T04:37:55;24.92;;;10.15;;
55346;SDS011;41218;55.700;38.270;2023-05-10T04:42:58;21.42;;;10.50;;
55346;SDS011;41218;55.700;38.270;2023-05-10T04:47:59;28.90;;;11.25;;
55346;SDS011;41218;55.700;38.270;2023-05-10T04:52:59;26.00;;;9.93;;
55346;SDS011;41218;55.700;38.270;2023-05-10T04:58:00;23.43;;;10.20;;
55346;SDS011;41218;55.700;38.270;2023-05-10T05:03:01;24.20;;;10.77;;
55346;SDS011;41218;55.700;38.270;2023-05-10T05:08:01;23.33;;;10.97;;
55346;SDS011;41218;55.700;38.270;2023-05-10T05:13:02;25.65;;;10.18;;
55346;SDS011;41218;55.700;38.270;2023-05-10T05:18:03;20.00;;;9.93;;
55346;SDS011;41218;55.700;38.270;2023-05-10T05:23:04;17.50;;;9.05;;
55346;SDS011;41218;55.700;38.270;2023-05-10T05:28:04;13.03;;;6.37;;
55346;SDS011;41218;55.700;38.270;2023-05-10T05:33:05;15.57;;;5.63;;
55346;SDS011;41218;55.700;38.270;2023-05-10T05:38:06;13.63;;;5.85;;
55346;SDS011;41218;55.700;38.270;2023-05-10T05:43:06;9.17;;;5.13;;
55346;SDS011;41218;55.700;38.270;2023-05-10T05:48:07;10.57;;;4.63;;
55346;SDS011;41218;55.700;38.270;2023-05-10T05:53:08;8.47;;;4.53;;
55346;SDS011;41218;55.700;38.270;2023-05-10T05:58:09;9.52;;;4.50;;
55346;SDS011;41218;55.700;38.270;2023-05-10T06:03:09;10.00;;;4.97;;
55346;SDS011;41218;55.700;38.270;2023-05-10T06:08:10;14.77;;;5.63;;
55346;SDS011;41218;55.700;38.270;2023-05-10T06:13:11;10.73;;;5.00;;
55346;SDS011;41218;55.700;38.270;2023-05-10T06:18:12;14.15;;;4.80;;
55346;SDS011;41218;55.700;38.270;2023-05-10T06:23:13;15.07;;;5.40;;
55346;SDS011;41218;55.700;38.270;2023-05-10T06:28:13;12.73;;;4.77;;
55346;SDS011;41218;55.700;38.270;2023-05-10T06:33:14;10.33;;;4.73;;
55346;SDS011;41218;55.700;38.270;2023-05-10T06:38:16;8.35;;;4.53;;
55346;SDS011;41218;55.700;38.270;2023-05-10T06:43:16;8.87;;;4.60;;
55346;SDS011;41218;55.700;38.270;2023-05-10T06:48:17;8.07;;;4.45;;
55346;SDS011;41218;55.700;38.270;2023-05-10T06:53:18;10.90;;;4.60;;
55346;SDS011;41218;55.700;38.270;2023-05-10T06:58:18;10.50;;;3.90;;
55346;SDS011;41218;55.700;38.270;2023-05-10T07:03:19;8.20;;;4.03;;
55346;SDS011;41218;55.700;38.270;2023-05-10T07:08:19;7.03;;;3.07;;
55346;SDS011;41218;55.700;38.270;2023-05-10T07:13:20;13.37;;;3.37;;
55346;SDS011;41218;55.700;38.270;2023-05-10T07:18:21;6.23;;;2.53;;
55346;SDS011;41218;55.700;38.270;2023-05-10T07:23:21;4.03;;;2.53;;
55346;SDS011;41218;55.700;38.270;2023-05-10T07:28:22;5.53;;;2.50;;
55346;SDS011;41218;55.700;38.270;2023-05-10T07:33:23;6.20;;;2.30;;
55346;SDS011;41218;55.700;38.270;2023-05-10T07:38:23;5.17;;;2.60;;
55346;SDS011;41218;55.700;38.270;2023-05-10T07:43:24;8.37;;;2.77;;
55346;SDS011;41218;55.700;38.270;2023-05-10T07:48:25;5.50;;;2.37;;
55346;SDS011;41218;55.700;38.270;2023-05-10T07:53:26;3.00;;;1.90;;
55346;SDS011;41218;55.700;38.270;2023-05-10T07:58:27;2.97;;;1.83;;
55346;SDS011;41218;55.700;38.270;2023-05-10T08:03:35;2.85;;;1.60;;
55346;SDS011;41218;55.700;38.270;2023-05-10T08:08:35;4.97;;;1.77;;
55346;SDS011;41218;55.700;38.270;2023-05-10T08:13:36;6.50;;;1.95;;
55346;SDS011;41218;55.700;38.270;2023-05-10T08:18:37;2.97;;;1.90;;
55346;SDS011;41218;55.700;38.270;2023-05-10T08:23:38;6.63;;;1.95;;
55346;SDS011;41218;55.700;38.270;2023-05-10T08:28:39;3.30;;;2.03;;
55346;SDS011;41218;55.700;38.270;2023-05-10T08:33:40;3.08;;;1.77;;
55346;SDS011;41218;55.700;38.270;2023-05-10T08:38:40;2.57;;;1.70;;
55346;SDS011;41218;55.700;38.270;2023-05-10T08:43:41;4.87;;;2.00;;
55346;SDS011;41218;55.700;38.270;2023-05-10T08:48:46;2.78;;;1.52;;
55346;SDS011;41218;55.700;38.270;2023-05-10T08:53:48;2.42;;;1.60;;
55346;SDS011;41218;55.700;38.270;2023-05-10T08:58:49;2.90;;;1.75;;
55346;SDS011;41218;55.700;38.270;2023-05-10T09:03:50;4.97;;;1.58;;
55346;SDS011;41218;55.700;38.270;2023-05-10T09:08:51;2.80;;;1.43;;
55346;SDS011;41218;55.700;38.270;2023-05-10T09:18:53;3.07;;;1.67;;
55346;SDS011;41218;55.700;38.270;2023-05-10T09:23:53;3.23;;;1.70;;
55346;SDS011;41218;55.700;38.270;2023-05-10T09:28:56;2.20;;;1.40;;
55346;SDS011;41218;55.700;38.270;2023-05-10T09:33:58;3.60;;;1.45;;
55346;SDS011;41218;55.700;38.270;2023-05-10T09:38:58;2.93;;;1.60;;
55346;SDS011;41218;55.700;38.270;2023-05-10T09:43:59;2.73;;;1.60;;
55346;SDS011;41218;55.700;38.270;2023-05-10T09:48:59;2.58;;;1.70;;
55346;SDS011;41218;55.700;38.270;2023-05-10T09:54:10;2.65;;;1.80;;
55346;SDS011;41218;55.700;38.270;2023-05-10T09:59:12;2.45;;;1.65;;
55346;SDS011;41218;55.700;38.270;2023-05-10T10:04:13;3.03;;;2.10;;
55346;SDS011;41218;55.700;38.270;2023-05-10T10:09:13;2.00;;;1.63;;
55346;SDS011;41218;55.700;38.270;2023-05-10T10:14:14;3.05;;;1.80;;
55346;SDS011;41218;55.700;38.270;2023-05-10T10:19:14;3.92;;;1.85;;
55346;SDS011;41218;55.700;38.270;2023-05-10T10:24:15;2.40;;;1.77;;
55346;SDS011;41218;55.700;38.270;2023-05-10T10:29:21;2.67;;;1.65;;
55346;SDS011;41218;55.700;38.270;2023-05-10T10:34:26;2.50;;;1.90;;
55346;SDS011;41218;55.700;38.270;2023-05-10T10:39:28;4.20;;;2.33;;
55346;SDS011;41218;55.700;38.270;2023-05-10T10:54:39;4.47;;;1.90;;
55346;SDS011;41218;55.700;38.270;2023-05-10T10:59:42;2.88;;;1.83;;
55346;SDS011;41218;55.700;38.270;2023-05-10T11:04:44;3.55;;;2.00;;
55346;SDS011;41218;55.700;38.270;2023-05-10T11:09:49;2.67;;;2.00;;
55346;SDS011;41218;55.700;38.270;2023-05-10T11:14:50;4.07;;;2.08;;
55346;SDS011;41218;55.700;38.270;2023-05-10T11:20:24;3.50;;;2.30;;
55346;SDS011;41218;55.700;38.270;2023-05-10T11:25:26;3.50;;;2.13;;
55346;SDS011;41218;55.700;38.270;2023-05-10T11:30:28;2.63;;;2.08;;
55346;SDS011;41218;55.700;38.270;2023-05-10T11:35:28;3.35;;;2.00;;
55346;SDS011;41218;55.700;38.270;2023-05-10T11:40:29;2.50;;;2.03;;
55346;SDS011;41218;55.700;38.270;2023-05-10T11:45:33;2.53;;;2.17;;
55346;SDS011;41218;55.700;38.270;2023-05-10T11:50:34;2.42;;;2.10;;
55346;SDS011;41218;55.700;38.270;2023-05-10T11:55:35;3.25;;;1.90;;
55346;SDS011;41218;55.700;38.270;2023-05-10T12:00:35;2.97;;;1.75;;
55346;SDS011;41218;55.700;38.270;2023-05-10T12:05:36;4.45;;;1.73;;
55346;SDS011;41218;55.700;38.270;2023-05-10T12:15:37;2.60;;;1.77;;
55346;SDS011;41218;55.700;38.270;2023-05-10T12:25:39;2.72;;;1.75;;
55346;SDS011;41218;55.700;38.270;2023-05-10T12:30:39;6.18;;;2.08;;
55346;SDS011;41218;55.700;38.270;2023-05-10T12:35:47;2.55;;;1.63;;
55346;SDS011;41218;55.700;38.270;2023-05-10T12:40:48;2.40;;;2.20;;
55346;SDS011;41218;55.700;38.270;2023-05-10T12:45:49;6.35;;;1.95;;
55346;SDS011;41218;55.700;38.270;2023-05-10T12:50:50;2.80;;;2.10;;
55346;SDS011;41218;55.700;38.270;2023-05-10T12:55:51;3.45;;;2.40;;
55346;SDS011;41218;55.700;38.270;2023-05-10T13:00:51;4.05;;;1.80;;
55346;SDS011;41218;55.700;38.270;2023-05-10T13:05:52;3.47;;;2.00;;
55346;SDS011;41218;55.700;38.270;2023-05-10T13:10:52;2.33;;;2.00;;
55346;SDS011;41218;55.700;38.270;2023-05-10T13:15:53;2.75;;;1.80;;
55346;SDS011;41218;55.700;38.270;2023-05-10T13:20:54;4.90;;;1.95;;
55346;SDS011;41218;55.700;38.270;2023-05-10T13:25:55;2.30;;;1.77;;
55346;SDS011;41218;55.700;38.270;2023-05-10T13:30:56;4.95;;;1.63;;
55346;SDS011;41218;55.700;38.270;2023-05-10T13:35:56;3.47;;;1.77;;
55346;SDS011;41218;55.700;38.270;2023-05-10T13:40:57;4.38;;;2.00;;
55346;SDS011;41218;55.700;38.270;2023-05-10T13:45:57;2.35;;;1.80;;
55346;SDS011;41218;55.700;38.270;2023-05-10T13:50:58;3.15;;;1.90;;
55346;SDS011;41218;55.700;38.270;2023-05-10T13:55:58;3.67;;;1.85;;
55346;SDS011;41218;55.700;38.270;2023-05-10T14:00:59;2.88;;;1.95;;
55346;SDS011;41218;55.700;38.270;2023-05-10T14:05:59;2.03;;;1.65;;
55346;SDS011;41218;55.700;38.270;2023-05-10T14:11:00;2.33;;;1.65;;
55346;SDS011;41218;55.700;38.270;2023-05-10T14:16:01;3.33;;;1.83;;
55346;SDS011;41218;55.700;38.270;2023-05-10T14:21:01;2.35;;;1.80;;
55346;SDS011;41218;55.700;38.270;2023-05-10T14:26:03;2.20;;;1.65;;
55346;SDS011;41218;55.700;38.270;2023-05-10T14:31:04;3.05;;;2.00;;
55346;SDS011;41218;55.700;38.270;2023-05-10T14:36:05;1.92;;;1.70;;
55346;SDS011;41218;55.700;38.270;2023-05-10T14:41:06;2.90;;;1.70;;
55346;SDS011;41218;55.700;38.270;2023-05-10T14:46:07;2.28;;;1.90;;
55346;SDS011;41218;55.700;38.270;2023-05-10T14:51:08;2.83;;;1.83;;
55346;SDS011;41218;55.700;38.270;2023-05-10T14:56:09;3.55;;;2.00;;
55346;SDS011;41218;55.700;38.270;2023-05-10T15:01:09;4.07;;;2.07;;
55346;SDS011;41218;55.700;38.270;2023-05-10T15:06:10;2.13;;;1.83;;
55346;SDS011;41218;55.700;38.270;2023-05-10T15:11:10;3.00;;;1.80;;
55346;SDS011;41218;55.700;38.270;2023-05-10T15:16:11;2.73;;;1.90;;
55346;SDS011;41218;55.700;38.270;2023-05-10T15:21:11;3.67;;;2.13;;
55346;SDS011;41218;55.700;38.270;2023-05-10T15:26:12;3.85;;;2.00;;
55346;SDS011;41218;55.700;38.270;2023-05-10T15:31:13;2.80;;;2.05;;
55346;SDS011;41218;55.700;38.270;2023-05-10T15:36:13;2.92;;;2.00;;
55346;SDS011;41218;55.700;38.270;2023-05-10T15:41:14;2.50;;;1.88;;
55346;SDS011;41218;55.700;38.270;2023-05-10T15:46:14;2.53;;;1.90;;
55346;SDS011;41218;55.700;38.270;2023-05-10T15:51:15;2.17;;;1.90;;
55346;SDS011;41218;55.700;38.270;2023-05-10T15:56:15;3.25;;;2.10;;
55346;SDS011;41218;55.700;38.270;2023-05-10T16:01:16;3.17;;;2.20;;
55346;SDS011;41218;55.700;38.270;2023-05-10T16:06:16;3.17;;;1.92;;
55346;SDS011;41218;55.700;38.270;2023-05-10T16:11:17;3.92;;;1.98;;
55346;SDS011;41218;55.700;38.270;2023-05-10T16:16:17;2.35;;;1.83;;
55346;SDS011;41218;55.700;38.270;2023-05-10T16:21:18;3.37;;;2.10;;
55346;SDS011;41218;55.700;38.270;2023-05-10T16:26:18;3.00;;;2.20;;
55346;SDS011;41218;55.700;38.270;2023-05-10T16:31:19;3.58;;;2.20;;
55346;SDS011;41218;55.700;38.270;2023-05-10T16:36:19;3.08;;;2.00;;
55346;SDS011;41218;55.700;38.270;2023-05-10T16:41:20;3.50;;;2.00;;
55346;SDS011;41218;55.700;38.270;2023-05-10T16:46:20;3.30;;;2.10;;
55346;SDS011;41218;55.700;38.270;2023-05-10T16:51:21;3.47;;;2.27;;
55346;SDS011;41218;55.700;38.270;2023-05-10T16:56:21;2.97;;;2.07;;
55346;SDS011;41218;55.700;38.270;2023-05-10T17:06:23;4.10;;;2.30;;
55346;SDS011;41218;55.700;38.270;2023-05-10T17:11:23;2.45;;;1.90;;
55346;SDS011;41218;55.700;38.270;2023-05-10T17:16:24;3.75;;;2.05;;
55346;SDS011;41218;55.700;38.270;2023-05-10T17:21:25;4.20;;;2.38;;
55346;SDS011;41218;55.700;38.270;2023-05-10T17:26:26;4.55;;;2.95;;
55346;SDS011;41218;55.700;38.270;2023-05-10T17:31:28;3.72;;;2.10;;
55346;SDS011;41218;55.700;38.270;2023-05-10T17:36:29;4.30;;;2.58;;
55346;SDS011;41218;55.700;38.270;2023-05-10T17:41:29;5.67;;;2.93;;
55346;SDS011;41218;55.700;38.270;2023-05-10T17:46:30;3.27;;;2.13;;
55346;SDS011;41218;55.700;38.270;2023-05-10T17:51:32;2.92;;;2.15;;
55346;SDS011;41218;55.700;38.270;2023-05-10T17:56:32;3.70;;;2.53;;
55346;SDS011;41218;55.700;38.270;2023-05-10T18:01:33;5.23;;;2.70;;
55346;SDS011;41218;55.700;38.270;2023-05-10T18:06:36;3.70;;;2.45;;
55346;SDS011;41218;55.700;38.270;2023-05-10T18:11:37;4.18;;;2.90;;
55346;SDS011;41218;55.700;38.270;2023-05-10T18:16:38;4.28;;;2.92;;
55346;SDS011;41218;55.700;38.270;2023-05-10T18:21:38;5.30;;;3.30;;
55346;SDS011;41218;55.700;38.270;2023-05-10T18:26:39;4.33;;;3.10;;
55346;SDS011;41218;55.700;38.270;2023-05-10T18:31:40;6.43;;;3.30;;
55346;SDS011;41218;55.700;38.270;2023-05-10T18:36:40;6.73;;;4.03;;
55346;SDS011;41218;55.700;38.270;2023-05-10T18:41:43;7.13;;;3.78;;
55346;SDS011;41218;55.700;38.270;2023-05-10T18:46:44;7.00;;;4.07;;
55346;SDS011;41218;55.700;38.270;2023-05-10T18:51:45;9.53;;;4.10;;
55346;SDS011;41218;55.700;38.270;2023-05-10T18:56:47;7.65;;;4.85;;
55346;SDS011;41218;55.700;38.270;2023-05-10T19:01:48;6.10;;;4.18;;
55346;SDS011;41218;55.700;38.270;2023-05-10T19:06:48;6.53;;;4.40;;
55346;SDS011;41218;55.700;38.270;2023-05-10T19:11:49;6.23;;;4.20;;
55346;SDS011;41218;55.700;38.270;2023-05-10T19:21:50;8.47;;;4.10;;
55346;SDS011;41218;55.700;38.270;2023-05-10T19:26:51;9.00;;;4.30;;
55346;SDS011;41218;55.700;38.270;2023-05-10T19:31:52;8.73;;;4.28;;
55346;SDS011;41218;55.700;38.270;2023-05-10T19:36:53;8.40;;;4.47;;
55346;SDS011;41218;55.700;38.270;2023-05-10T19:41:53;6.30;;;4.30;;
55346;SDS011;41218;55.700;38.270;2023-05-10T19:46:54;6.87;;;4.17;;
55346;SDS011;41218;55.700;38.270;2023-05-10T19:51:54;8.60;;;4.43;;
55346;SDS011;41218;55.700;38.270;2023-05-10T19:56:55;7.63;;;3.97;;
55346;SDS011;41218;55.700;38.270;2023-05-10T20:01:55;7.77;;;4.47;;
55346;SDS011;41218;55.700;38.270;2023-05-10T20:06:56;7.50;;;4.57;;
55346;SDS011;41218;55.700;38.270;2023-05-10T20:11:56;7.30;;;4.43;;
55346;SDS011;41218;55.700;38.270;2023-05-10T20:16:57;6.53;;;4.33;;
55346;SDS011;41218;55.700;38.270;2023-05-10T20:21:57;8.40;;;4.60;;
55346;SDS011;41218;55.700;38.270;2023-05-10T20:26:58;11.55;;;5.05;;
55346;SDS011;41218;55.700;38.270;2023-05-10T20:37:00;9.10;;;4.80;;
55346;SDS011;41218;55.700;38.270;2023-05-10T20:42:00;8.68;;;4.90;;
55346;SDS011;41218;55.700;38.270;2023-05-10T20:47:01;10.97;;;5.37;;
55346;SDS011;41218;55.700;38.270;2023-05-10T20:52:02;9.93;;;5.20;;
55346;SDS011;41218;55.700;38.270;2023-05-10T20:57:03;10.02;;;5.00;;
55346;SDS011;41218;55.700;38.270;2023-05-10T21:02:04;10.93;;;5.90;;
55346;SDS011;41218;55.700;38.270;2023-05-10T21:07:05;10.13;;;5.57;;
55346;SDS011;41218;55.700;38.270;2023-05-10T21:12:05;11.03;;;5.60;;
55346;SDS011;41218;55.700;38.270;2023-05-10T21:17:07;11.40;;;5.93;;
55346;SDS011;41218;55.700;38.270;2023-05-10T21:22:08;8.70;;;5.07;;
55346;SDS011;41218;55.700;38.270;2023-05-10T21:27:08;9.50;;;5.60;;
55346;SDS011;41218;55.700;38.270;2023-05-10T21:32:09;10.93;;;6.10;;
55346;SDS011;41218;55.700;38.270;2023-05-10T21:37:09;15.23;;;7.00;;
55346;SDS011;41218;55.700;38.270;2023-05-10T21:42:10;11.87;;;6.33;;
55346;SDS011;41218;55.700;38.270;2023-05-10T21:47:10;14.53;;;6.50;;
55346;SDS011;41218;55.700;38.270;2023-05-10T21:52:11;12.30;;;6.67;;
55346;SDS011;41218;55.700;38.270;2023-05-10T21:57:11;12.60;;;6.60;;
55346;SDS011;41218;55.700;38.270;2023-05-10T22:02:12;14.93;;;6.80;;
55346;SDS011;41218;55.700;38.270;2023-05-10T22:07:12;13.57;;;6.77;;
55346;SDS011;41218;55.700;38.270;2023-05-10T22:12:15;13.63;;;6.35;;
55346;SDS011;41218;55.700;38.270;2023-05-10T22:17:16;14.00;;;6.37;;
55346;SDS011;41218;55.700;38.270;2023-05-10T22:22:16;9.57;;;5.47;;
55346;SDS011;41218;55.700;38.270;2023-05-10T22:27:17;10.47;;;5.60;;
55346;SDS011;41218;55.700;38.270;2023-05-10T22:32:18;10.83;;;5.53;;
55346;SDS011;41218;55.700;38.270;2023-05-10T22:37:18;10.70;;;5.43;;
55346;SDS011;41218;55.700;38.270;2023-05-10T22:42:19;8.30;;;4.80;;
55346;SDS011;41218;55.700;38.270;2023-05-10T22:47:19;14.67;;;6.00;;
55346;SDS011;41218;55.700;38.270;2023-05-10T22:52:20;8.93;;;5.00;;
55346;SDS011;41218;55.700;38.270;2023-05-10T22:57:20;10.27;;;5.23;;
55346;SDS011;41218;55.700;38.270;2023-05-10T23:02:21;8.37;;;4.93;;
55346;SDS011;41218;55.700;38.270;2023-05-10T23:07:22;10.23;;;5.23;;
55346;SDS011;41218;55.700;38.270;2023-05-10T23:12:23;7.45;;;4.78;;
55346;SDS011;41218;55.700;38.270;2023-05-10T23:17:24;8.57;;;4.80;;
55346;SDS011;41218;55.700;38.270;2023-05-10T23:22:24;8.90;;;5.20;;
55346;SDS011;41218;55.700;38.270;2023-05-10T23:27:28;8.60;;;4.90;;
55346;SDS011;41218;55.700;38.270;2023-05-10T23:32:29;10.35;;;5.40;;
55346;SDS011;41218;55.700;38.270;2023-05-10T23:37:30;9.40;;;5.00;;
55346;SDS011;41218;55.700;38.270;2023-05-10T23:42:31;12.27;;;5.50;;
55346;SDS011;41218;55.700;38.270;2023-05-10T23:47:31;12.27;;;5.10;;
55346;SDS011;41218;55.700;38.270;2023-05-10T23:52:32;11.90;;;5.60;;
55346;SDS011;41218;55.700;38.270;2023-05-10T23:57:32;8.67;;;5.27;;
